Jamestown, NY (14701)

7:33 AM EDT on April 30, 2017 (GMT -0400)
North Jamestown, NY | | Change Station

Elev 1490 ft 42.11 °N, 79.24 °W | Updated 37 seconds ago

Overcast
Overcast
49.6 °F
Feels Like 49 °F
N
3.1
Wind Variable Wind from NE
Gusts 6.3 mph

Today
High -- | Low -- °F
--% Chance of Precip.
Yesterday
High -- | Low -- °F
Precip. -- in
Pressure 30.11 in
Visibility 10.0 miles
Clouds Few 2100 ft
Mostly Cloudy 7000 ft
Windchill 49 °F
Dew Point 46 °F
Humidity 86%
Rainfall 0.00 in
Snow Depth Not available.
6:13 AM 8:15 PM
Waxing Crescent, 22% visible
METAR KJHW 301115Z AUTO 30013KT 10SM FEW021 BKN070 09/04 A3011 RMK AO1
Pressure 30.11 in
Visibility 10.0 miles
Clouds Few 2100 ft
Mostly Cloudy 7000 ft
Windchill 49 °F
Dew Point 46 °F
Humidity 86%
Rainfall 0.00 in
Snow Depth Not available.
6:13 AM 8:15 PM
Waxing Crescent, 22% visible
METAR KJHW 301115Z AUTO 30013KT 10SM FEW021 BKN070 09/04 A3011 RMK AO1

Get Severe Weather Alerts

Thanks for signing up!

Be on the lookout for a verification email in your inbox.

You'll start receiving the daily forecast at 8 AM.

×

10-Day Weather Forecast

Almanac

Astronomy

Apr. 30, 2017 Rise Set
Actual Time
Civil Twilight
Nautical Twilight
Astronomical Twilight
Moon
Length of Visible Light
Length of Day
Tomorrow will be .
, % of the Moon is Illuminated

Today's Extremes

State Highs State Lows

Community

WunderPhotos

WunderBlog® & News

Nearby

Air Quality

  Air Quality AQ Index Pollutant
Not available.

Snow Depth

Station Depth Elevation

Earthquake Activity

City Distance Mag. Time & Date
Minimum magnitude displayed is 2.5.

Coastal Water Temperatures

Place Temperature

Stations

Nearby Weather Stations

Station Location Temp. Windchill Dew Point Humidity Wind Precip. Elev Updated Type
                   

Watches & Warnings

There are currently no watches in effect.